Time;durP1;ratioP1;P1;durP2;ratioP2;P2;SDS_P1;SDS_P2;PMS_P1;PMS_P2;Temp;Humidity;BMP_temperature;BMP_pressure;BME280_temperature;BME280_humidity;BME280_pressure;Samples;Min_cycle;Max_cycle;Signal;HPM_P1;HPM_P2
2021/12/20 00:51:32;;;;;;;23.35;14.90;;;;;;;7.05;100.00;100279.47;6044729;23;19921;31
2021/12/20 00:54:17;;;;;;;24.15;15.52;;;;;;;6.95;100.00;100278.69;4899835;29;20453;-73
2021/12/20 00:57:03;;;;;;;25.45;16.05;;;;;;;6.80;100.00;100281.47;4902222;29;20059;-71
2021/12/20 00:59:49;;;;;;;23.88;15.95;;;;;;;6.54;100.00;100285.16;4902210;29;20033;-73
2021/12/20 01:02:35;;;;;;;23.08;15.05;;;;;;;6.87;100.00;100288.31;4902584;29;20386;-73
2021/12/20 01:05:21;;;;;;;23.67;15.95;;;;;;;6.84;100.00;100290.97;4902323;29;20040;-72
2021/12/20 01:08:09;;;;;;;22.90;15.43;;;;;;;6.93;100.00;100285.69;4902189;29;20111;-73
2021/12/20 01:10:56;;;;;;;24.42;15.45;;;;;;;7.21;100.00;100289.72;4902669;29;20403;-72
2021/12/20 01:13:41;;;;;;;24.88;15.95;;;;;;;6.93;100.00;100284.81;4902208;29;20037;-72
2021/12/20 01:16:32;;;;;;;25.73;15.80;;;;;;;6.79;100.00;100284.94;4901851;29;20032;-72
2021/12/20 01:19:18;;;;;;;24.60;16.27;;;;;;;7.15;100.00;100283.72;4903143;29;20029;-72
2021/12/20 01:22:05;;;;;;;25.60;16.58;;;;;;;6.89;100.00;100286.59;4902369;29;20513;-73
2021/12/20 01:24:51;;;;;;;24.45;16.60;;;;;;;6.76;100.00;100273.69;4902936;29;20036;-72
2021/12/20 01:27:37;;;;;;;23.83;16.48;;;;;;;6.85;100.00;100278.81;4901753;29;20469;-73
2021/12/20 01:30:26;;;;;;;24.65;15.52;;;;;;;6.94;100.00;100271.78;4902301;29;20036;-73
2021/12/20 01:33:13;;;;;;;24.90;15.50;;;;;;;7.29;100.00;100274.00;4901790;29;20170;-74
2021/12/20 01:35:58;;;;;;;27.05;16.95;;;;;;;7.54;100.00;100265.88;4902532;29;20113;-73
2021/12/20 01:38:44;;;;;;;23.30;16.35;;;;;;;7.01;100.00;100264.75;4902306;29;20036;-72
2021/12/20 01:41:30;;;;;;;25.20;16.80;;;;;;;7.30;100.00;100265.28;4902515;29;20119;-72
2021/12/20 01:44:16;;;;;;;25.85;16.92;;;;;;;7.41;100.00;100273.84;4901463;29;20477;-72
2021/12/20 01:47:04;;;;;;;25.73;16.75;;;;;;;7.20;100.00;100261.09;4902599;29;20040;-73
2021/12/20 01:50:01;;;;;;;26.05;17.00;;;;;;;7.20;100.00;100261.94;4902533;29;20104;-72
2021/12/20 01:52:48;;;;;;;24.42;16.23;;;;;;;7.53;100.00;100255.47;4901765;29;20051;-73
2021/12/20 01:55:34;;;;;;;24.80;16.13;;;;;;;7.16;100.00;100255.03;4901430;29;20029;-72
2021/12/20 01:58:22;;;;;;;26.50;16.98;;;;;;;6.48;100.00;100251.38;4901865;29;20067;-73
2021/12/20 02:03:58;;;;;;;24.90;16.13;;;;;;;6.55;100.00;100259.13;4901198;29;20033;-72
2021/12/20 02:50:42;;;;;;;21.65;14.70;;;;;;;6.10;100.00;100238.66;5201024;23;20145;-71
2021/12/20 02:53:28;;;;;;;21.27;14.00;;;;;;;6.05;100.00;100244.78;5016361;28;20061;-73
2021/12/20 02:56:14;;;;;;;20.08;13.55;;;;;;;5.41;100.00;100249.44;4991800;28;20040;-72
2021/12/20 02:59:00;;;;;;;20.90;13.30;;;;;;;5.58;100.00;100245.03;4996948;28;20089;-73
2021/12/20 03:01:52;;;;;;;18.65;11.88;;;;;;;5.39;100.00;100256.41;4982101;28;20030;-72
2021/12/20 03:04:39;;;;;;;19.77;12.70;;;;;;;5.53;100.00;100244.19;4997111;28;20037;-73
2021/12/20 03:07:27;;;;;;;19.48;12.45;;;;;;;5.21;100.00;100246.06;4995641;28;20514;-72
2021/12/20 03:10:18;;;;;;;19.73;12.75;;;;;;;5.50;100.00;100244.19;4996496;28;20438;-72
2021/12/20 03:13:04;;;;;;;19.38;12.45;;;;;;;5.66;100.00;100239.81;4996541;28;20030;-73
2021/12/20 03:15:50;;;;;;;19.13;11.48;;;;;;;5.56;100.00;100243.31;4995999;28;20034;-72
2021/12/20 03:18:36;;;;;;;18.08;11.90;;;;;;;5.39;100.00;100236.47;4996328;28;20030;-72
2021/12/20 03:21:22;;;;;;;18.88;12.25;;;;;;;5.80;100.00;100235.38;4996253;28;20045;-73
2021/12/20 03:24:07;;;;;;;16.88;10.93;;;;;;;5.38;100.00;100238.22;4996223;28;20427;-72
2021/12/20 03:26:53;;;;;;;19.40;10.77;;;;;;;5.31;100.00;100245.16;4995873;28;20077;-74
2021/12/20 03:29:39;;;;;;;16.40;10.93;;;;;;;5.92;100.00;100238.81;4997105;28;20022;-72
2021/12/20 03:32:25;;;;;;;14.88;10.32;;;;;;;5.74;100.00;100253.63;4996007;28;20037;-73
2021/12/20 03:35:11;;;;;;;16.55;10.77;;;;;;;5.51;100.00;100251.16;4996090;28;20046;-73
2021/12/20 03:37:57;;;;;;;16.20;10.52;;;;;;;5.60;100.00;100245.03;4995799;28;20466;-73
2021/12/20 03:40:43;;;;;;;17.05;10.35;;;;;;;5.71;100.00;100258.84;4995794;28;20034;-73
2021/12/20 03:43:31;;;;;;;17.77;10.82;;;;;;;5.33;100.00;100278.06;4996299;28;20028;-73
2021/12/20 03:46:17;;;;;;;14.57;9.75;;;;;;;5.39;100.00;100271.97;4995477;28;20038;-73
2021/12/20 03:49:05;;;;;;;17.35;10.98;;;;;;;5.62;100.00;100280.50;4981204;28;20026;-73
2021/12/20 04:11:10;;;;;;;15.50;9.75;;;;;;;4.54;100.00;100297.22;5614259;23;20058;-73
2021/12/20 04:13:56;;;;;;;16.27;10.20;;;;;;;4.51;100.00;100296.38;4975107;28;20039;-73
2021/12/20 04:16:42;;;;;;;16.60;10.32;;;;;;;4.85;100.00;100309.31;4975733;28;20029;-73
2021/12/20 04:19:27;;;;;;;15.20;9.80;;;;;;;5.00;100.00;100300.66;4962191;28;20232;-72
2021/12/20 04:22:15;;;;;;;13.27;8.90;;;;;;;4.77;100.00;100303.28;4975540;28;20031;-72
2021/12/20 04:25:02;;;;;;;12.80;8.80;;;;;;;5.12;100.00;100309.28;4975167;28;20026;-72
2021/12/20 04:27:48;;;;;;;16.63;11.02;;;;;;;4.98;100.00;100299.75;4976226;28;20058;-73
2021/12/20 04:30:34;;;;;;;17.05;11.10;;;;;;;5.15;100.00;100300.63;4976528;28;20018;-73
2021/12/20 04:33:20;;;;;;;15.65;10.40;;;;;;;5.16;100.00;100299.75;4975484;28;20023;-72
2021/12/20 04:36:06;;;;;;;16.08;10.27;;;;;;;5.05;100.00;100298.91;4962233;28;20019;-73
2021/12/20 04:38:52;;;;;;;14.82;10.00;;;;;;;4.90;100.00;100302.38;4961911;28;20113;-73
2021/12/20 04:41:37;;;;;;;13.13;9.38;;;;;;;4.89;100.00;100308.44;4976051;28;20035;-73
2021/12/20 04:44:23;;;;;;;15.32;9.55;;;;;;;5.09;100.00;100305.81;4975378;28;20018;-72
2021/12/20 04:47:09;;;;;;;14.18;9.52;;;;;;;5.09;100.00;100317.06;4975697;28;20415;-72
2021/12/20 04:49:55;;;;;;;12.73;9.13;;;;;;;5.06;100.00;100319.66;4975668;28;20530;-72
2021/12/20 04:52:41;;;;;;;14.10;9.48;;;;;;;5.32;100.00;100312.66;4975320;28;20031;-73
2021/12/20 04:55:29;;;;;;;12.77;9.25;;;;;;;5.08;100.00;100320.53;4962196;28;20419;-73
2021/12/20 04:58:15;;;;;;;14.15;9.40;;;;;;;5.21;100.00;100326.56;4975259;28;20077;-72
2021/12/20 05:01:00;;;;;;;13.65;9.30;;;;;;;5.42;100.00;100325.66;4975579;28;20456;-73
2021/12/20 05:03:46;;;;;;;14.82;9.68;;;;;;;5.52;100.00;100335.13;4974672;28;20022;-72
2021/12/20 05:24:59;;;;;;;16.15;10.90;;;;;;;5.70;100.00;100346.31;5363349;23;20463;-73
2021/12/20 05:27:46;;;;;;;15.35;10.85;;;;;;;5.86;100.00;100344.56;4956154;28;20032;-73
2021/12/20 05:30:33;;;;;;;15.40;10.20;;;;;;;5.69;100.00;100343.72;4958966;28;20019;-74
2021/12/20 05:33:20;;;;;;;19.92;12.38;;;;;;;5.72;100.00;100343.72;4959195;28;20091;-73
2021/12/20 05:36:06;;;;;;;18.63;11.70;;;;;;;5.81;100.00;100344.56;4959252;28;20099;-74
2021/12/20 05:38:52;;;;;;;18.77;12.63;;;;;;;5.90;100.00;100344.53;4959812;28;20031;-74
2021/12/20 05:41:37;;;;;;;18.00;12.80;;;;;;;5.91;100.00;100348.00;4960280;28;20027;-73
2021/12/20 05:44:23;;;;;;;20.17;12.65;;;;;;;6.02;100.00;100341.88;4958010;29;20027;-73
2021/12/20 05:47:09;;;;;;;18.27;12.60;;;;;;;5.97;100.00;100345.34;4959284;28;20054;-71
2021/12/20 05:49:55;;;;;;;21.13;13.48;;;;;;;5.92;100.00;100347.13;4960124;28;20058;-72
2021/12/20 05:52:41;;;;;;;18.92;13.23;;;;;;;6.02;100.00;100341.03;4957719;29;20027;-72
2021/12/20 05:55:27;;;;;;;19.45;13.85;;;;;;;6.14;100.00;100339.19;4959081;28;20089;-72
2021/12/20 05:58:12;;;;;;;22.42;13.75;;;;;;;5.79;100.00;100348.03;4958807;28;20475;-73
2021/12/20 06:00:58;;;;;;;22.52;13.98;;;;;;;5.80;100.00;100347.16;4959110;29;20174;-72
2021/12/20 06:03:44;;;;;;;22.13;14.25;;;;;;;5.62;100.00;100352.44;4958755;28;20019;-73
2021/12/20 06:06:31;;;;;;;21.70;14.48;;;;;;;5.78;100.00;100354.94;4959488;28;20041;-72
2021/12/20 06:09:17;;;;;;;23.00;15.10;;;;;;;5.87;100.00;100359.28;4959081;28;20039;-72
2021/12/20 06:12:03;;;;;;;23.23;14.85;;;;;;;6.00;100.00;100367.03;4959690;28;20035;-72
2021/12/20 06:14:49;;;;;;;22.75;15.48;;;;;;;5.76;100.00;100358.41;4958753;28;20050;-76
2021/12/20 06:17:35;;;;;;;24.08;15.63;;;;;;;5.50;100.00;100374.09;4958716;28;20035;-72
2021/12/20 06:20:21;;;;;;;23.30;15.48;;;;;;;5.55;100.00;100380.16;4959143;28;20329;-74
2021/12/20 06:23:07;;;;;;;25.27;16.27;;;;;;;5.64;100.00;100374.06;4958636;28;20097;-73
2021/12/20 06:25:53;;;;;;;29.17;16.80;;;;;;;5.59;100.00;100379.28;4958878;28;20047;-73
2021/12/20 06:28:39;;;;;;;25.30;16.90;;;;;;;5.93;100.00;100380.03;4959044;28;20046;-73
2021/12/20 06:31:24;;;;;;;24.52;15.98;;;;;;;6.19;100.00;100394.66;4959588;28;20031;-73
2021/12/20 06:34:11;;;;;;;23.52;16.30;;;;;;;6.02;100.00;100385.22;4958766;28;20027;-72
2021/12/20 06:36:57;;;;;;;26.40;16.70;;;;;;;6.52;100.00;100389.28;4958652;28;20126;-73
2021/12/20 06:39:42;;;;;;;23.15;15.60;;;;;;;6.29;100.00;100395.47;4958660;28;20027;-74
2021/12/20 06:42:29;;;;;;;22.55;15.93;;;;;;;6.66;100.00;100399.56;4957405;28;20498;-73
2021/12/20 06:45:15;;;;;;;23.33;14.80;;;;;;;6.71;100.00;100405.63;4958260;28;20031;-72
2021/12/20 06:48:01;;;;;;;24.05;15.98;;;;;;;6.40;100.00;100397.16;4958290;28;20038;-73
2021/12/20 06:50:46;;;;;;;26.88;15.90;;;;;;;6.17;100.00;100395.53;4958701;28;20174;-72
2021/12/20 06:53:32;;;;;;;24.05;15.65;;;;;;;6.66;100.00;100409.97;4958103;28;20452;-72
2021/12/20 06:56:18;;;;;;;24.27;15.55;;;;;;;6.79;100.00;100409.03;4958326;28;20031;-73
2021/12/20 06:59:04;;;;;;;20.92;14.48;;;;;;;6.62;100.00;100410.88;4958935;28;20035;-72
2021/12/20 07:01:50;;;;;;;22.42;15.65;;;;;;;6.77;100.00;100406.44;4958799;28;20122;-72
2021/12/20 07:04:35;;;;;;;20.27;14.43;;;;;;;6.93;100.00;100405.47;4957269;29;20077;-73
2021/12/20 07:07:21;;;;;;;21.40;14.70;;;;;;;6.68;100.00;100405.66;4958426;28;20048;-73
2021/12/20 07:10:08;;;;;;;23.00;14.85;;;;;;;6.82;100.00;100403.78;4957921;28;20495;-73
2021/12/20 07:12:55;;;;;;;23.27;15.05;;;;;;;6.91;100.00;100401.16;4957963;28;20035;-73
2021/12/20 07:15:41;;;;;;;19.60;14.07;;;;;;;6.56;100.00;100411.81;4956980;28;20122;-73
2021/12/20 07:18:27;;;;;;;21.85;14.32;;;;;;;6.34;100.00;100404.13;4957638;29;20023;-72
2021/12/20 07:21:12;;;;;;;19.27;13.88;;;;;;;6.45;100.00;100403.19;4957936;28;20089;-73
2021/12/20 07:23:58;;;;;;;23.77;15.23;;;;;;;6.45;100.00;100404.91;4957775;28;20472;-73
2021/12/20 07:26:44;;;;;;;22.65;14.48;;;;;;;6.75;100.00;100397.78;4957338;28;20034;-73
2021/12/20 07:29:31;;;;;;;20.67;14.15;;;;;;;7.02;100.00;100404.50;4958326;28;20038;-73
2021/12/20 07:32:17;;;;;;;24.55;14.52;;;;;;;7.00;100.00;100420.16;4957058;28;20178;-72
2021/12/20 07:35:03;;;;;;;20.80;14.30;;;;;;;6.59;100.00;100416.97;4958420;28;20027;-72
2021/12/20 07:37:49;;;;;;;22.67;14.52;;;;;;;6.27;100.00;100412.84;4957757;28;20036;-72
2021/12/20 07:40:35;;;;;;;21.58;15.25;;;;;;;6.48;100.00;100407.50;4957000;28;20178;-73
2021/12/20 08:02:37;;;;;;;16.30;12.65;;;;;;;6.72;100.00;100428.19;5055193;23;20063;-73
2021/12/20 08:05:27;;;;;;;18.10;13.52;;;;;;;6.93;100.00;100428.03;4957235;28;20031;-74
2021/12/20 08:08:57;;;;;;;22.60;13.93;;;;;;;6.77;100.00;100442.00;4956763;29;20462;-73
2021/12/20 08:11:43;;;;;;;17.17;12.55;;;;;;;6.94;100.00;100441.03;4956751;29;20436;-73
2021/12/20 08:14:29;;;;;;;17.02;12.65;;;;;;;7.04;100.00;100437.50;4956569;28;20027;-74
2021/12/20 08:17:14;;;;;;;18.27;12.35;;;;;;;6.80;100.00;100437.69;4956513;28;20035;-73
2021/12/20 08:20:00;;;;;;;16.17;11.40;;;;;;;7.42;100.00;100435.41;4956195;29;20125;-74
2021/12/20 08:22:47;;;;;;;17.73;12.60;;;;;;;7.65;100.00;100430.84;4956743;28;20468;-74
2021/12/20 08:25:35;;;;;;;18.15;12.15;;;;;;;7.82;100.00;100443.69;4956173;28;20118;-73
2021/12/20 08:28:21;;;;;;;16.25;12.02;;;;;;;7.77;100.00;100446.38;4956667;28;20471;-73
2021/12/20 08:31:08;;;;;;;14.07;11.18;;;;;;;7.26;100.00;100440.75;4956529;29;20510;-75
2021/12/20 08:33:54;;;;;;;16.58;11.43;;;;;;;7.61;100.00;100446.53;4955615;29;20093;-73
2021/12/20 08:36:41;;;;;;;16.05;11.73;;;;;;;7.45;100.00;100440.59;4956233;28;20028;-75
2021/12/20 08:39:28;;;;;;;16.52;11.18;;;;;;;7.34;100.00;100454.59;4955719;29;20033;-75
2021/12/20 08:42:14;;;;;;;20.65;11.50;;;;;;;7.33;100.00;100447.66;4956086;29;20038;-73
2021/12/20 08:45:00;;;;;;;15.32;10.98;;;;;;;7.48;100.00;100444.94;4954695;29;20035;-73
2021/12/20 08:47:46;;;;;;;24.35;11.07;;;;;;;7.68;100.00;100436.00;4956952;28;20423;-73
2021/12/20 08:50:32;;;;;;;14.02;10.77;;;;;;;8.20;100.00;100437.16;4955536;29;20121;-73
2021/12/20 08:53:17;;;;;;;17.73;12.27;;;;;;;8.06;100.00;100439.06;4956385;29;20059;-73
2021/12/20 08:56:04;;;;;;;14.52;10.15;;;;;;;8.82;100.00;100436.34;4956104;28;20041;-73
2021/12/20 08:58:50;;;;;;;13.82;9.57;;;;;;;8.05;100.00;100436.47;4955542;29;20039;-75
2021/12/20 09:01:36;;;;;;;13.32;9.43;;;;;;;8.48;100.00;100435.09;4955412;29;20047;-74
2021/12/20 09:04:22;;;;;;;16.63;12.18;;;;;;;8.04;100.00;100434.75;4955144;28;20034;-75
2021/12/20 09:07:14;;;;;;;12.25;7.38;;;;;;;7.61;100.00;100436.09;4960348;28;20038;-73
2021/12/20 09:10:00;;;;;;;8.95;7.15;;;;;;;7.74;100.00;100437.69;4959825;28;20460;-73
2021/12/20 09:12:46;;;;;;;9.25;7.22;;;;;;;7.74;100.00;100438.56;4958689;29;20042;-73
2021/12/20 09:15:33;;;;;;;9.10;6.95;;;;;;;7.71;100.00;100438.59;4959735;28;20117;-74
2021/12/20 09:18:19;;;;;;;11.00;7.45;;;;;;;7.69;100.00;100431.66;4959745;29;20448;-73
2021/12/20 10:10:10;;;;;;;14.00;7.68;;;;;;;8.11;100.00;100415.53;5056696;23;20487;-72
2021/12/20 10:19:33;;;;;;;8.30;5.90;;;;;;;8.08;100.00;100426.88;5814987;23;20062;-73
2021/12/20 10:22:29;;;;;;;13.40;6.68;;;;;;;8.40;100.00;100418.69;4957855;29;20027;-72
2021/12/20 10:25:30;;;;;;;13.52;6.93;;;;;;;7.69;100.00;100416.91;4958673;28;20557;-74
2021/12/20 10:28:25;;;;;;;8.07;6.03;;;;;;;8.15;100.00;100418.09;4957678;29;20413;-73
2021/12/20 10:31:17;;;;;;;8.52;6.32;;;;;;;8.34;100.00;100416.13;4958294;29;20035;-72
2021/12/20 10:34:03;;;;;;;10.50;6.80;;;;;;;8.52;100.00;100431.56;4957577;29;20027;-72
2021/12/20 10:36:54;;;;;;;10.63;7.22;;;;;;;8.61;100.00;100415.75;4958215;28;20373;-73
2021/12/20 10:39:44;;;;;;;12.40;8.00;;;;;;;8.88;100.00;100420.59;4959829;28;20023;-71
2021/12/20 10:42:40;;;;;;;11.07;6.55;;;;;;;8.79;100.00;100415.47;4960069;28;20031;-73
2021/12/20 10:45:27;;;;;;;11.80;7.30;;;;;;;8.44;100.00;100418.59;4958048;28;20045;-73
2021/12/20 10:48:14;;;;;;;10.15;6.60;;;;;;;8.62;100.00;100420.09;4958190;28;20110;-72
2021/12/20 10:51:00;;;;;;;8.60;6.45;;;;;;;8.70;100.00;100413.88;4958546;28;20042;-73
2021/12/20 10:53:58;;;;;;;10.05;6.78;;;;;;;8.54;100.00;100408.91;4958128;28;20027;-73
2021/12/20 10:56:55;;;;;;;9.68;7.03;;;;;;;8.81;100.00;100414.56;4957080;28;20035;-73
2021/12/20 10:59:41;;;;;;;10.07;7.13;;;;;;;8.96;100.00;100413.50;4956257;29;20031;-73
2021/12/20 11:03:11;;;;;;;12.60;7.30;;;;;;;9.06;100.00;100415.94;4957263;29;20031;-73
2021/12/20 11:05:58;;;;;;;12.60;7.72;;;;;;;9.15;100.00;100417.50;4956794;28;20034;-72
2021/12/20 11:11:56;;;;;;;8.20;5.78;;;;;;;8.32;100.00;100402.25;4957561;29;20102;-73
2021/12/20 11:14:47;;;;;;;8.27;5.70;;;;;;;8.29;100.00;100402.28;4956845;29;20031;-73
2021/12/20 11:17:33;;;;;;;14.32;9.70;;;;;;;8.01;100.00;100430.44;4956185;29;20061;-73
2021/12/20 11:20:21;;;;;;;19.08;10.38;;;;;;;7.95;100.00;100432.25;4956131;29;20058;-74
2021/12/20 11:23:11;;;;;;;17.75;10.43;;;;;;;7.92;100.00;100440.13;4957286;28;20067;-73
2021/12/20 11:25:57;;;;;;;18.17;11.80;;;;;;;7.93;100.00;100449.66;4957687;28;20022;-73
2021/12/20 11:28:43;;;;;;;17.08;12.07;;;;;;;8.13;100.00;100456.41;4956566;28;20026;-73
2021/12/20 11:31:28;;;;;;;16.48;11.75;;;;;;;8.23;100.00;100463.25;4956605;29;20070;-74
2021/12/20 11:34:15;;;;;;;19.48;13.00;;;;;;;7.42;100.00;100471.03;4956948;28;20027;-73
2021/12/20 11:37:01;;;;;;;21.25;13.18;;;;;;;7.21;100.00;100479.91;4955704;28;20372;-73
2021/12/20 11:39:48;;;;;;;21.73;13.88;;;;;;;7.39;100.00;100476.28;4956245;29;20054;-74
2021/12/20 11:42:34;;;;;;;22.77;14.73;;;;;;;7.37;100.00;100481.50;4956406;29;20037;-74
2021/12/20 11:45:20;;;;;;;25.08;14.57;;;;;;;7.22;100.00;100480.75;4956385;28;20027;-73
2021/12/20 11:48:12;;;;;;;20.05;14.48;;;;;;;6.64;100.00;100472.50;4956392;29;20035;-73
2021/12/20 11:50:58;;;;;;;18.60;13.88;;;;;;;6.48;100.00;100486.44;4958064;28;20073;-73
2021/12/20 11:53:44;;;;;;;21.70;14.10;;;;;;;6.62;100.00;100484.63;4956629;29;20115;-73
2021/12/20 11:56:39;;;;;;;24.63;17.10;;;;;;;6.59;100.00;100484.63;4956261;28;20031;-73
2021/12/20 11:59:48;;;;;;;28.80;17.90;;;;;;;6.06;100.00;100501.34;4957183;29;20062;-71
2021/12/20 12:02:43;;;;;;;27.92;18.52;;;;;;;5.88;100.00;100510.06;4957104;28;20111;-72
2021/12/20 12:05:47;;;;;;;29.05;19.02;;;;;;;5.58;100.00;100514.41;4956801;28;20467;-73
2021/12/20 12:08:33;;;;;;;24.17;17.25;;;;;;;5.68;100.00;100518.72;4955111;29;20049;-72
2021/12/20 12:11:25;;;;;;;28.08;17.10;;;;;;;5.54;100.00;100525.66;4957112;29;20031;-71
2021/12/20 12:14:19;;;;;;;21.08;14.25;;;;;;;5.78;100.00;100531.69;4955870;29;20069;-73
2021/12/20 12:17:09;;;;;;;18.08;11.55;;;;;;;4.97;100.00;100536.84;4956422;28;20043;-72
2021/12/20 12:19:55;;;;;;;14.63;9.48;;;;;;;4.98;100.00;100547.25;4956007;29;20491;-73
2021/12/20 12:22:43;;;;;;;14.65;7.80;;;;;;;5.01;100.00;100554.16;4956288;28;20122;-72
2021/12/20 12:25:44;;;;;;;22.95;8.88;;;;;;;4.97;100.00;100553.31;4955730;28;20035;-74
2021/12/20 12:28:57;;;;;;;16.38;7.85;;;;;;;4.99;100.00;100556.75;4956151;28;20475;-73
2021/12/20 12:32:01;;;;;;;20.73;9.18;;;;;;;4.92;100.00;100559.34;4956006;29;20027;-73
2021/12/20 12:34:49;;;;;;;22.55;9.80;;;;;;;5.46;100.00;100568.97;4955587;29;20082;-73
2021/12/20 12:37:38;;;;;;;12.55;6.30;;;;;;;5.09;100.00;100562.84;4956374;28;20425;-72
2021/12/20 12:40:26;;;;;;;12.65;6.88;;;;;;;5.21;100.00;100563.75;4955184;28;20471;-73
2021/12/20 12:43:16;;;;;;;10.40;6.03;;;;;;;5.11;100.00;100572.38;4954694;29;20471;-72
2021/12/20 12:46:04;;;;;;;14.93;6.40;;;;;;;5.34;100.00;100580.19;4955521;28;20375;-74
2021/12/20 12:48:51;;;;;;;11.13;6.60;;;;;;;5.58;100.00;100582.81;4956695;28;20027;-73
2021/12/20 12:51:39;;;;;;;29.85;8.48;;;;;;;5.32;100.00;100592.31;4953578;29;20034;-73
2021/12/20 12:54:42;;;;;;;29.63;9.00;;;;;;;5.01;100.00;100600.91;4955150;29;20047;-73
2021/12/20 12:57:32;;;;;;;21.88;9.15;;;;;;;4.65;100.00;100592.97;4955095;29;20476;-73
2021/12/20 13:00:28;;;;;;;22.63;8.55;;;;;;;4.45;100.00;100608.47;4954920;29;20075;-72
2021/12/20 13:03:15;;;;;;;25.20;10.35;;;;;;;4.67;100.00;100609.44;4955160;29;20394;-73
2021/12/20 13:06:17;;;;;;;21.65;8.45;;;;;;;4.56;100.00;100611.09;4955904;28;20433;-73
2021/12/20 13:09:03;;;;;;;14.98;6.70;;;;;;;4.61;100.00;100628.44;4953462;29;20027;-73
2021/12/20 13:11:49;;;;;;;13.88;7.40;;;;;;;4.80;100.00;100638.03;4956081;28;20043;-73
2021/12/20 13:14:55;;;;;;;14.90;7.45;;;;;;;5.23;100.00;100629.53;4955069;29;20031;-73
2021/12/20 13:17:46;;;;;;;13.23;7.20;;;;;;;5.14;100.00;100641.59;4955128;29;20027;-74
2021/12/20 13:20:36;;;;;;;23.80;8.45;;;;;;;4.58;100.00;100643.97;4955561;28;20055;-73
2021/12/20 13:23:36;;;;;;;15.50;7.55;;;;;;;5.01;100.00;100639.84;4955530;29;20062;-71
2021/12/20 13:26:22;;;;;;;15.90;10.05;;;;;;;5.43;100.00;100653.81;4953602;28;20074;-74
2021/12/20 13:29:15;;;;;;;22.67;8.57;;;;;;;4.67;100.00;100669.97;4955944;28;20024;-74
2021/12/20 13:32:09;;;;;;;25.35;8.43;;;;;;;5.00;100.00;100674.47;4955401;29;20027;-73
2021/12/20 13:34:56;;;;;;;20.35;9.40;;;;;;;4.69;100.00;100685.53;4954228;29;20126;-73
2021/12/20 13:37:42;;;;;;;24.98;10.68;;;;;;;4.86;100.00;100684.78;4956098;28;20449;-73
2021/12/20 13:41:08;;;;;;;21.13;10.40;;;;;;;5.61;100.00;100685.88;4955103;29;20039;-72
2021/12/20 14:33:27;;;;;;;22.23;10.82;;;;;;;4.62;100.00;100814.38;6078327;23;19920;31
2021/12/20 14:40:08;;;;;;;15.13;8.20;;;;;;;4.90;100.00;100818.91;4978378;28;20035;-72
2021/12/20 14:43:06;;;;;;;17.30;10.32;;;;;;;5.08;100.00;100818.16;4977969;28;20034;-73
2021/12/20 14:46:17;;;;;;;16.52;9.43;;;;;;;5.19;100.00;100821.69;4975990;28;20452;-73
2021/12/20 14:49:15;;;;;;;14.60;7.63;;;;;;;4.37;100.00;100832.31;4962913;28;20030;-73
2021/12/20 14:52:13;;;;;;;13.57;8.55;;;;;;;4.35;100.00;100849.59;4962396;28;20019;-73
2021/12/20 14:55:10;;;;;;;11.73;7.45;;;;;;;4.45;100.00;100847.09;4977400;28;20067;-73
2021/12/20 14:57:56;;;;;;;11.73;7.63;;;;;;;4.48;100.00;100846.25;4975956;28;20423;-73
2021/12/20 15:00:47;;;;;;;10.35;7.35;;;;;;;4.82;100.00;100848.25;4963181;28;20041;-73
2021/12/20 15:03:40;;;;;;;12.80;7.22;;;;;;;4.75;100.00;100849.06;4976783;28;20027;-73
2021/12/20 15:06:26;;;;;;;11.05;6.15;;;;;;;5.15;100.00;100848.50;4977828;28;20023;-74
2021/12/20 15:09:12;;;;;;;11.48;6.07;;;;;;;4.85;100.00;100843.97;4976500;28;20030;-73
2021/12/20 15:11:58;;;;;;;12.27;6.47;;;;;;;5.08;100.00;100847.59;4975894;28;20031;-73
2021/12/20 15:14:45;;;;;;;16.98;9.27;;;;;;;4.95;100.00;100848.34;4977366;28;20041;-73
2021/12/20 15:17:32;;;;;;;12.60;8.23;;;;;;;4.52;100.00;100854.09;4976672;28;20030;-72
2021/12/20 15:20:19;;;;;;;18.02;9.23;;;;;;;4.92;100.00;100853.53;4977474;28;20054;-72
2021/12/20 15:23:05;;;;;;;16.85;10.90;;;;;;;5.17;100.00;100851.97;4977885;28;20338;-74
2021/12/20 15:25:51;;;;;;;20.55;11.48;;;;;;;5.38;100.00;100858.16;4977818;28;20027;-74
2021/12/20 15:28:37;;;;;;;16.98;10.02;;;;;;;5.22;100.00;100861.53;4975894;28;20023;-74
2021/12/20 15:31:22;;;;;;;15.73;8.65;;;;;;;4.83;100.00;100863.00;4976897;28;20097;-73
2021/12/20 15:34:10;;;;;;;14.07;8.23;;;;;;;5.03;100.00;100872.63;4976162;28;20481;-73
2021/12/20 15:36:56;;;;;;;13.88;8.75;;;;;;;4.98;100.00;100884.72;4976526;28;20027;-75
2021/12/20 15:39:42;;;;;;;14.85;8.57;;;;;;;4.98;100.00;100887.31;4975801;28;20030;-73
2021/12/20 15:42:33;;;;;;;14.35;7.95;;;;;;;4.92;100.00;100897.69;4976312;28;20089;-73
2021/12/20 15:45:18;;;;;;;13.82;9.00;;;;;;;4.83;100.00;100887.19;4976216;28;20027;-73
2021/12/20 15:48:06;;;;;;;14.20;8.30;;;;;;;4.80;100.00;100896.69;4976813;28;20041;-73
2021/12/20 15:50:52;;;;;;;20.65;10.85;;;;;;;5.26;100.00;100903.97;4975513;28;20026;-73
2021/12/20 15:53:37;;;;;;;26.05;14.18;;;;;;;5.48;100.00;100901.50;4975078;28;20037;-74
2021/12/20 15:56:23;;;;;;;26.27;14.75;;;;;;;5.19;100.00;100904.81;4975485;28;20037;-73
2021/12/20 15:59:09;;;;;;;26.90;14.07;;;;;;;5.51;100.00;100900.69;4975524;28;20114;-72
2021/12/20 16:01:55;;;;;;;21.23;12.23;;;;;;;5.36;100.00;100903.19;4975962;28;20026;-73
2021/12/20 16:04:42;;;;;;;24.75;13.68;;;;;;;4.89;100.00;100905.44;4975415;28;20034;-72
2021/12/20 16:07:28;;;;;;;25.70;13.35;;;;;;;5.04;100.00;100908.16;4976661;28;20514;-73
2021/12/20 16:10:14;;;;;;;27.00;13.88;;;;;;;5.11;100.00;100915.13;4961924;28;20034;-73
2021/12/20 16:12:59;;;;;;;26.30;13.75;;;;;;;4.77;100.00;100923.50;4975846;28;20463;-73
2021/12/20 16:15:46;;;;;;;26.65;14.60;;;;;;;5.08;100.00;100915.13;4974570;28;20034;-73
2021/12/20 16:18:32;;;;;;;25.23;14.73;;;;;;;5.38;100.00;100912.72;4976317;28;20479;-73
2021/12/20 16:21:17;;;;;;;22.73;14.25;;;;;;;5.06;100.00;100916.81;4976250;28;20113;-73
2021/12/20 16:24:04;;;;;;;25.83;13.40;;;;;;;4.88;100.00;100923.59;4975104;28;20033;-74
2021/12/20 16:26:49;;;;;;;24.25;14.32;;;;;;;5.02;100.00;100934.94;4974945;28;20034;-72
2021/12/20 16:29:37;;;;;;;24.10;13.70;;;;;;;4.91;100.00;100934.00;4961787;28;20102;-73
2021/12/20 16:32:22;;;;;;;22.02;13.05;;;;;;;5.38;100.00;100938.69;4975576;28;20038;-73
2021/12/20 16:35:11;;;;;;;23.83;13.15;;;;;;;5.36;100.00;100935.19;4974200;28;20373;-73
2021/12/20 16:37:59;;;;;;;22.15;12.90;;;;;;;5.33;100.00;100934.31;4975236;28;20639;-73
2021/12/20 16:40:45;;;;;;;22.45;13.43;;;;;;;5.58;100.00;100935.38;4961345;28;20097;-74
2021/12/20 16:43:36;;;;;;;33.45;18.52;;;;;;;5.45;100.00;100937.00;4975103;28;20037;-73
2021/12/20 16:46:22;;;;;;;36.28;20.92;;;;;;;5.39;100.00;100950.81;4975170;28;20027;-71
2021/12/20 16:49:13;;;;;;;38.83;20.90;;;;;;;4.94;100.00;100962.56;4975347;28;20474;-73
2021/12/20 16:51:59;;;;;;;31.60;18.35;;;;;;;4.53;100.00;100967.38;4960435;28;20027;-72
2021/12/20 16:54:46;;;;;;;30.27;16.02;;;;;;;4.96;100.00;100966.94;4974270;28;20042;-73
2021/12/20 16:57:32;;;;;;;32.75;17.08;;;;;;;5.11;100.00;100967.03;4974821;28;20030;-74
2021/12/20 17:00:18;;;;;;;26.90;14.00;;;;;;;4.78;100.00;100960.69;4975785;28;20057;-73
2021/12/20 17:03:06;;;;;;;23.42;13.20;;;;;;;4.77;100.00;100959.81;4974855;28;20034;-73
2021/12/20 17:08:47;;;;;;;23.33;12.68;;;;;;;5.13;100.00;100975.75;4975374;28;20079;-73
2021/12/20 17:11:33;;;;;;;22.35;12.73;;;;;;;4.75;100.00;100976.25;4975302;28;20033;-73
2021/12/20 17:14:19;;;;;;;20.98;12.40;;;;;;;5.02;100.00;100977.38;4961785;28;20027;-72
2021/12/20 17:17:06;;;;;;;22.10;12.40;;;;;;;5.04;100.00;100979.97;4976147;28;20114;-74